Time;durP1;ratioP1;P1;durP2;ratioP2;P2;SDS_P1;SDS_P2;PMS_P1;PMS_P2;Temp;Humidity;BMP_temperature;BMP_pressure;BME280_temperature;BME280_humidity;BME280_pressure;Samples;Min_cycle;Max_cycle;Signal;HPM_P1;HPM_P2
2022/05/24 00:00:09;;;;;;;22.23;11.27;;;;;;;;;;5015207;28;92831;-71
2022/05/24 00:02:35;;;;;;;15.00;10.98;;;;;;;;;;4994563;28;93191;-70
2022/05/24 00:05:02;;;;;;;20.25;11.40;;;;;;;;;;5005471;28;96031;-70
2022/05/24 00:07:30;;;;;;;21.60;12.02;;;;;;;;;;4992107;28;92493;-71
2022/05/24 00:09:56;;;;;;;16.27;11.73;;;;;;;;;;5018131;28;93011;-71
2022/05/24 00:12:23;;;;;;;18.45;12.02;;;;;;;;;;5015312;28;92447;-71
2022/05/24 00:17:34;;;;;;;20.30;12.93;;;;;;;;;;4999585;28;94187;-70
2022/05/24 00:20:00;;;;;;;17.08;12.30;;;;;;;;;;5013254;28;92503;-70
2022/05/24 00:22:27;;;;;;;21.85;13.63;;;;;;;;;;4990268;28;93028;-71
2022/05/24 00:24:55;;;;;;;20.50;13.45;;;;;;;;;;5004886;28;93487;-70
2022/05/24 00:27:22;;;;;;;21.52;14.13;;;;;;;;;;4997210;28;93263;-70
2022/05/24 00:29:48;;;;;;;20.13;14.25;;;;;;;;;;5003296;28;96566;-71
2022/05/24 00:32:14;;;;;;;21.98;15.25;;;;;;;;;;5017178;28;95680;-70
2022/05/24 00:34:40;;;;;;;21.65;15.07;;;;;;;;;;5014507;28;93363;-70
2022/05/24 00:37:08;;;;;;;22.45;15.73;;;;;;;;;;5012315;28;93681;-70
2022/05/24 00:39:34;;;;;;;20.63;14.63;;;;;;;;;;5015024;28;92347;-71
2022/05/24 00:42:20;;;;;;;23.35;16.02;;;;;;;;;;4997976;28;93325;-71
2022/05/24 00:44:49;;;;;;;22.10;15.43;;;;;;;;;;5015002;28;93501;-71
2022/05/24 00:47:22;;;;;;;26.25;16.98;;;;;;;;;;5015121;28;91776;-70
2022/05/24 00:49:51;;;;;;;23.23;16.05;;;;;;;;;;5014261;28;92588;-71
2022/05/24 00:52:24;;;;;;;20.70;14.40;;;;;;;;;;5014867;28;93896;-70
2022/05/24 00:54:57;;;;;;;26.25;16.95;;;;;;;;;;5016020;28;94844;-71
2022/05/24 00:57:29;;;;;;;21.00;14.88;;;;;;;;;;5012895;28;93559;-70
2022/05/24 00:59:58;;;;;;;25.45;15.90;;;;;;;;;;5012930;28;92447;-71
2022/05/24 01:02:24;;;;;;;22.67;15.45;;;;;;;;;;5012736;28;93581;-71
2022/05/24 01:04:50;;;;;;;35.08;14.60;;;;;;;;;;5011942;28;93432;-70
2022/05/24 01:07:17;;;;;;;25.98;15.48;;;;;;;;;;5012363;28;93181;-70
2022/05/24 01:09:43;;;;;;;23.77;15.50;;;;;;;;;;5012458;28;93529;-70
2022/05/24 01:12:14;;;;;;;30.88;16.42;;;;;;;;;;5013363;28;92775;-70
2022/05/24 01:14:42;;;;;;;23.83;16.73;;;;;;;;;;5014312;28;92814;-70
2022/05/24 01:17:09;;;;;;;24.38;17.05;;;;;;;;;;5018158;28;93232;-70
2022/05/24 01:19:40;;;;;;;27.00;17.23;;;;;;;;;;5012669;28;96194;-70
2022/05/24 01:22:26;;;;;;;24.73;16.98;;;;;;;;;;5014632;28;96098;-72
2022/05/24 01:25:02;;;;;;;24.95;17.23;;;;;;;;;;5010299;28;95400;-70
2022/05/24 01:27:29;;;;;;;28.17;17.15;;;;;;;;;;5014300;28;92352;-71
2022/05/24 01:29:55;;;;;;;28.65;16.88;;;;;;;;;;5013042;28;93179;-70
2022/05/24 01:37:52;;;;;;;30.58;14.90;;;;;;;;;;5009537;28;93744;-70
2022/05/24 01:40:19;;;;;;;31.02;14.80;;;;;;;;;;5016308;28;93576;-70
2022/05/24 01:42:45;;;;;;;33.08;14.75;;;;;;;;;;5016861;28;93322;-70
2022/05/24 01:45:17;;;;;;;25.27;13.43;;;;;;;;;;5011599;28;95900;-71
2022/05/24 01:47:52;;;;;;;23.73;13.40;;;;;;;;;;5013805;28;92639;-71
2022/05/24 01:50:20;;;;;;;20.23;12.15;;;;;;;;;;5013317;28;92782;-70
2022/05/24 01:52:52;;;;;;;27.92;11.73;;;;;;;;;;5013109;28;93539;-71
2022/05/24 01:55:21;;;;;;;21.58;10.77;;;;;;;;;;5013823;28;92552;-71
2022/05/24 01:57:52;;;;;;;22.77;9.60;;;;;;;;;;5015364;28;92419;-71
2022/05/24 02:00:18;;;;;;;22.98;9.68;;;;;;;;;;5012298;28;93453;-71
2022/05/24 02:02:45;;;;;;;17.50;8.95;;;;;;;;;;4993028;28;91768;-71
2022/05/24 02:05:12;;;;;;;19.08;8.43;;;;;;;;;;4987891;28;93468;-70
2022/05/24 02:07:39;;;;;;;14.80;7.78;;;;;;;;;;5013853;28;92551;-70
2022/05/24 02:10:07;;;;;;;17.75;8.65;;;;;;;;;;5011972;28;95350;-70
2022/05/24 02:12:38;;;;;;;16.23;7.60;;;;;;;;;;4997846;28;93183;-70
2022/05/24 02:15:06;;;;;;;14.50;8.13;;;;;;;;;;4995649;28;92549;-70
2022/05/24 02:17:39;;;;;;;13.52;7.90;;;;;;;;;;5014334;28;93504;-70
2022/05/24 02:20:07;;;;;;;23.65;8.35;;;;;;;;;;5013523;28;94421;-71
2022/05/24 02:22:33;;;;;;;19.25;7.95;;;;;;;;;;5017223;28;92494;-70
2022/05/24 02:25:06;;;;;;;15.48;7.10;;;;;;;;;;5010963;28;94829;-71
2022/05/24 02:27:37;;;;;;;20.38;8.15;;;;;;;;;;4993753;28;91847;-70
2022/05/24 02:30:04;;;;;;;25.13;8.32;;;;;;;;;;5007310;28;92686;-71
2022/05/24 02:32:30;;;;;;;19.30;8.88;;;;;;;;;;5012841;28;93895;-71
2022/05/24 02:34:57;;;;;;;21.83;7.97;;;;;;;;;;5012739;28;95252;-70
2022/05/24 02:37:23;;;;;;;22.73;8.07;;;;;;;;;;5011106;28;95692;-71
2022/05/24 02:42:34;;;;;;;19.73;7.25;;;;;;;;;;4995992;28;92615;-71
2022/05/24 02:45:01;;;;;;;14.30;7.53;;;;;;;;;;5015131;28;92576;-71
2022/05/24 02:47:27;;;;;;;14.63;7.45;;;;;;;;;;5015054;28;92631;-71
2022/05/24 02:49:53;;;;;;;20.50;7.53;;;;;;;;;;5013460;28;93039;-70
2022/05/24 02:52:19;;;;;;;19.02;8.10;;;;;;;;;;4993056;28;92884;-72
2022/05/24 02:54:46;;;;;;;20.33;7.88;;;;;;;;;;5012946;28;92550;-71
2022/05/24 02:57:13;;;;;;;17.77;7.80;;;;;;;;;;5013278;28;93140;-71
2022/05/24 02:59:39;;;;;;;15.60;7.55;;;;;;;;;;5012657;28;96293;-70
2022/05/24 03:02:08;;;;;;;17.92;7.78;;;;;;;;;;4995957;28;92542;-71
2022/05/24 03:04:35;;;;;;;17.95;7.60;;;;;;;;;;4995251;28;93366;-71
2022/05/24 03:09:46;;;;;;;17.90;7.57;;;;;;;;;;5010775;28;93117;-71
2022/05/24 03:14:57;;;;;;;18.63;8.05;;;;;;;;;;4994685;28;92901;-71
2022/05/24 03:17:24;;;;;;;17.98;8.32;;;;;;;;;;4994143;28;93288;-72
2022/05/24 03:19:51;;;;;;;14.73;8.88;;;;;;;;;;5013451;28;93511;-70
2022/05/24 03:22:17;;;;;;;21.83;8.82;;;;;;;;;;5011225;28;93116;-71
2022/05/24 03:24:44;;;;;;;18.75;8.38;;;;;;;;;;5008004;28;95538;-71
2022/05/24 03:27:13;;;;;;;15.60;8.45;;;;;;;;;;5013358;28;93426;-71
2022/05/24 03:29:44;;;;;;;18.00;8.63;;;;;;;;;;4998897;28;92551;-71
2022/05/24 03:32:10;;;;;;;;;;;;;;;;;;5014270;28;93453;-71
2022/05/24 03:34:37;;;;;;;19.42;9.23;;;;;;;;;;5014494;28;118376;-71
2022/05/24 03:37:04;;;;;;;21.38;9.02;;;;;;;;;;5012417;28;92692;-71
2022/05/24 03:39:31;;;;;;;19.50;9.25;;;;;;;;;;5011599;28;93520;-70
2022/05/24 03:41:57;;;;;;;21.67;9.55;;;;;;;;;;5011987;28;92984;-71
2022/05/24 03:44:23;;;;;;;17.92;9.13;;;;;;;;;;5014842;28;93073;-71
2022/05/24 03:46:50;;;;;;;17.38;9.02;;;;;;;;;;5012375;28;93759;-70
2022/05/24 03:49:17;;;;;;;24.73;9.10;;;;;;;;;;4983735;28;96577;-70
2022/05/24 03:51:43;;;;;;;19.00;8.82;;;;;;;;;;5009357;28;95409;-70
2022/05/24 03:54:16;;;;;;;15.95;7.38;;;;;;;;;;5014100;28;92474;-70
2022/05/24 03:57:59;;;;;;;21.40;7.93;;;;;;;;;;4993862;28;93218;-70
2022/05/24 03:59:29;;;;;;;22.02;8.43;;;;;;;;;;5010784;28;92910;-71
2022/05/24 04:01:56;;;;;;;26.88;8.40;;;;;;;;;;5012227;28;92989;-70
2022/05/24 04:04:22;;;;;;;14.27;7.63;;;;;;;;;;5014472;28;94231;-71
2022/05/24 04:06:48;;;;;;;20.45;7.97;;;;;;;;;;5017065;28;92523;-72
2022/05/24 04:09:14;;;;;;;19.33;7.88;;;;;;;;;;4998168;28;92591;-71
2022/05/24 04:11:42;;;;;;;17.77;7.45;;;;;;;;;;5001270;28;93257;-71
2022/05/24 04:14:08;;;;;;;14.95;7.65;;;;;;;;;;5014202;28;95083;-70
2022/05/24 04:16:34;;;;;;;18.40;7.75;;;;;;;;;;5016119;28;95553;-70
2022/05/24 04:19:01;;;;;;;19.55;7.53;;;;;;;;;;5015183;28;92444;-70
2022/05/24 04:21:27;;;;;;;27.70;7.40;;;;;;;;;;5014665;28;92666;-71
2022/05/24 04:23:54;;;;;;;16.23;6.95;;;;;;;;;;5016018;28;93418;-70
2022/05/24 04:26:20;;;;;;;18.02;8.75;;;;;;;;;;4997192;28;93721;-71
2022/05/24 04:28:46;;;;;;;22.02;7.30;;;;;;;;;;5010175;28;92591;-71
2022/05/24 04:31:13;;;;;;;18.85;8.10;;;;;;;;;;5017179;28;91860;-70
2022/05/24 04:33:39;;;;;;;22.65;7.10;;;;;;;;;;5016262;28;93260;-70
2022/05/24 04:36:06;;;;;;;20.92;7.60;;;;;;;;;;5013348;28;93558;-71
2022/05/24 04:38:32;;;;;;;16.42;7.35;;;;;;;;;;5013084;28;95822;-70
2022/05/24 04:43:43;;;;;;;23.50;7.60;;;;;;;;;;5005857;28;94434;-70
2022/05/24 04:46:09;;;;;;;23.92;7.50;;;;;;;;;;4996578;28;93776;-70
2022/05/24 04:48:35;;;;;;;15.48;7.20;;;;;;;;;;5015528;28;92845;-70
2022/05/24 04:51:02;;;;;;;22.25;7.85;;;;;;;;;;5014348;28;94553;-70
2022/05/24 04:53:28;;;;;;;25.50;7.80;;;;;;;;;;5015130;28;93811;-71
2022/05/24 04:55:54;;;;;;;19.45;8.07;;;;;;;;;;5017365;28;91905;-71
2022/05/24 04:58:21;;;;;;;17.25;7.78;;;;;;;;;;5011257;28;93904;-71
2022/05/24 05:00:48;;;;;;;15.43;8.10;;;;;;;;;;5008849;28;93129;-70
2022/05/24 05:03:17;;;;;;;24.17;7.53;;;;;;;;;;5002524;28;94835;-71
2022/05/24 05:05:44;;;;;;;21.63;8.02;;;;;;;;;;5014397;28;93655;-71
2022/05/24 05:08:10;;;;;;;21.40;7.90;;;;;;;;;;4998397;28;92520;-71
2022/05/24 05:10:37;;;;;;;20.67;8.73;;;;;;;;;;5014069;28;93214;-72
2022/05/24 05:13:04;;;;;;;19.90;8.05;;;;;;;;;;5009604;28;94071;-71
2022/05/24 05:15:34;;;;;;;17.02;8.13;;;;;;;;;;5013913;28;92473;-71
2022/05/24 05:18:04;;;;;;;19.58;8.45;;;;;;;;;;5016181;28;93933;-71
2022/05/24 05:20:31;;;;;;;15.10;7.90;;;;;;;;;;5015342;28;91741;-70
2022/05/24 05:22:57;;;;;;;22.92;8.20;;;;;;;;;;5015846;28;92789;-71
2022/05/24 05:25:24;;;;;;;16.52;8.77;;;;;;;;;;5014671;28;93886;-71
2022/05/24 05:27:50;;;;;;;25.35;8.73;;;;;;;;;;5014097;28;94753;-71
2022/05/24 05:33:02;;;;;;;19.55;7.93;;;;;;;;;;4997683;28;94505;-71
2022/05/24 05:35:29;;;;;;;23.48;7.25;;;;;;;;;;5014757;28;92390;-70
2022/05/24 05:37:55;;;;;;;17.45;7.57;;;;;;;;;;5015205;28;93128;-70
2022/05/24 05:40:21;;;;;;;20.17;7.25;;;;;;;;;;5015875;28;93666;-71
2022/05/24 05:42:48;;;;;;;17.98;6.03;;;;;;;;;;5016691;28;93185;-70
2022/05/24 05:45:15;;;;;;;17.85;6.10;;;;;;;;;;5017170;28;92545;-71
2022/05/24 05:47:41;;;;;;;23.58;6.88;;;;;;;;;;5014169;28;92755;-71
2022/05/24 05:50:08;;;;;;;15.70;5.88;;;;;;;;;;5013830;28;93280;-70
2022/05/24 05:52:35;;;;;;;14.90;5.00;;;;;;;;;;5014509;28;96308;-71
2022/05/24 05:55:01;;;;;;;19.13;5.72;;;;;;;;;;5013882;28;92454;-71
2022/05/24 05:57:27;;;;;;;17.20;6.03;;;;;;;;;;5014563;28;93449;-71
2022/05/24 05:59:53;;;;;;;20.80;5.78;;;;;;;;;;4992224;28;93403;-71
2022/05/24 06:02:20;;;;;;;15.77;6.20;;;;;;;;;;4998870;28;92551;-71
2022/05/24 06:04:46;;;;;;;16.73;5.60;;;;;;;;;;5013690;28;92321;-71
2022/05/24 06:07:14;;;;;;;18.15;5.32;;;;;;;;;;5014299;28;92504;-71
2022/05/24 06:09:41;;;;;;;12.77;5.45;;;;;;;;;;4997842;28;93192;-71
2022/05/24 06:12:07;;;;;;;21.65;5.72;;;;;;;;;;5013742;28;93338;-71
2022/05/24 06:14:34;;;;;;;13.80;5.60;;;;;;;;;;5014780;28;92479;-71
2022/05/24 06:17:21;;;;;;;19.08;6.30;;;;;;;;;;4997684;28;94911;-71
2022/05/24 06:19:47;;;;;;;15.52;5.80;;;;;;;;;;5015040;28;94147;-72
2022/05/24 06:22:14;;;;;;;22.90;6.70;;;;;;;;;;5000855;28;92416;-71
2022/05/24 06:24:40;;;;;;;18.05;5.80;;;;;;;;;;5012917;28;93581;-71
2022/05/24 06:27:07;;;;;;;12.02;5.88;;;;;;;;;;5011235;28;94164;-71
2022/05/24 06:29:33;;;;;;;22.55;6.13;;;;;;;;;;5009479;28;93500;-72
2022/05/24 06:32:01;;;;;;;11.73;5.40;;;;;;;;;;4993709;28;93595;-71
2022/05/24 06:34:29;;;;;;;18.05;5.90;;;;;;;;;;4994844;28;91887;-72
2022/05/24 06:36:56;;;;;;;18.38;5.55;;;;;;;;;;5008006;28;92520;-71
2022/05/24 06:39:22;;;;;;;10.30;5.05;;;;;;;;;;5014153;28;93248;-71
2022/05/24 06:41:49;;;;;;;13.70;4.88;;;;;;;;;;5010900;28;94849;-71
2022/05/24 06:44:15;;;;;;;9.65;4.93;;;;;;;;;;5025491;28;95730;-72
2022/05/24 06:46:41;;;;;;;12.82;5.20;;;;;;;;;;5014573;28;92456;-71
2022/05/24 06:49:08;;;;;;;15.00;5.13;;;;;;;;;;5013940;28;93457;-72
2022/05/24 06:51:35;;;;;;;24.70;5.18;;;;;;;;;;5009668;28;93327;-72
2022/05/24 06:54:01;;;;;;;8.85;4.35;;;;;;;;;;5014596;28;92424;-72
2022/05/24 06:56:27;;;;;;;12.30;5.00;;;;;;;;;;5010321;28;93660;-72
2022/05/24 07:02:25;;;;;;;14.70;4.50;;;;;;;;;;5012885;28;92602;-71
2022/05/24 07:04:24;;;;;;;12.88;4.35;;;;;;;;;;5013524;28;93223;-71
2022/05/24 07:06:50;;;;;;;15.68;4.60;;;;;;;;;;4998294;28;96740;-71
2022/05/24 07:09:17;;;;;;;11.40;4.20;;;;;;;;;;5014412;28;95906;-71
2022/05/24 07:11:43;;;;;;;14.98;4.45;;;;;;;;;;5013993;28;93851;-71
2022/05/24 07:14:09;;;;;;;18.10;4.13;;;;;;;;;;5011920;28;93891;-72
2022/05/24 07:16:35;;;;;;;16.27;4.03;;;;;;;;;;4989070;28;93263;-72
2022/05/24 07:19:05;;;;;;;13.35;4.00;;;;;;;;;;4988098;28;93432;-71
2022/05/24 07:21:32;;;;;;;17.98;4.43;;;;;;;;;;5014103;28;92441;-71
2022/05/24 07:23:58;;;;;;;10.98;3.65;;;;;;;;;;4993003;28;93568;-70
2022/05/24 07:26:25;;;;;;;10.60;3.83;;;;;;;;;;5013918;28;92483;-71
2022/05/24 07:29:13;;;;;;;11.65;3.53;;;;;;;;;;5017536;28;92450;-70
2022/05/24 07:31:39;;;;;;;14.05;3.70;;;;;;;;;;4992734;28;95926;-71
2022/05/24 07:34:06;;;;;;;7.90;2.90;;;;;;;;;;5010339;28;93861;-71
2022/05/24 07:36:32;;;;;;;9.75;3.67;;;;;;;;;;5012484;28;93222;-71
2022/05/24 07:38:58;;;;;;;16.58;3.22;;;;;;;;;;5016829;28;94553;-71
2022/05/24 07:46:56;;;;;;;9.80;3.05;;;;;;;;;;5011742;28;93476;-72
2022/05/24 07:49:22;;;;;;;15.93;3.75;;;;;;;;;;5016840;28;91658;-71
2022/05/24 07:51:48;;;;;;;12.18;2.70;;;;;;;;;;5019913;28;92569;-71
2022/05/24 07:54:15;;;;;;;13.43;2.65;;;;;;;;;;5014257;28;94133;-70
2022/05/24 07:56:44;;;;;;;14.00;3.08;;;;;;;;;;5015736;28;94768;-70
2022/05/24 07:59:10;;;;;;;8.20;2.40;;;;;;;;;;5012910;28;93230;-71
2022/05/24 08:01:36;;;;;;;14.18;2.78;;;;;;;;;;5001899;28;92496;-70
2022/05/24 08:04:03;;;;;;;8.60;2.47;;;;;;;;;;5016057;28;94351;-71
2022/05/24 08:06:29;;;;;;;4.15;2.15;;;;;;;;;;5017269;28;93461;-71
2022/05/24 08:08:56;;;;;;;7.43;2.03;;;;;;;;;;4999387;28;92478;-71
2022/05/24 08:11:22;;;;;;;9.13;2.35;;;;;;;;;;5017205;28;93062;-71
2022/05/24 08:13:48;;;;;;;10.57;2.08;;;;;;;;;;5019048;28;92753;-71
2022/05/24 08:16:15;;;;;;;8.30;2.03;;;;;;;;;;4995034;28;92642;-71
2022/05/24 08:18:44;;;;;;;11.68;2.10;;;;;;;;;;5015596;28;93609;-71
2022/05/24 08:21:10;;;;;;;15.60;1.92;;;;;;;;;;5013756;28;94927;-71
2022/05/24 08:23:37;;;;;;;3.53;1.75;;;;;;;;;;4999188;28;95536;-71
2022/05/24 08:26:03;;;;;;;7.00;1.80;;;;;;;;;;5016882;28;92518;-72
2022/05/24 08:28:29;;;;;;;13.05;1.67;;;;;;;;;;5017617;28;92750;-71
2022/05/24 08:30:55;;;;;;;5.07;1.42;;;;;;;;;;5013814;28;94049;-72
2022/05/24 08:33:23;;;;;;;5.55;1.85;;;;;;;;;;5018832;28;93566;-71
2022/05/24 08:35:50;;;;;;;6.47;1.83;;;;;;;;;;4999463;28;92517;-71
2022/05/24 08:38:17;;;;;;;3.65;1.60;;;;;;;;;;4999312;28;92414;-71
2022/05/24 08:40:44;;;;;;;9.95;1.55;;;;;;;;;;5016688;28;92501;-70
2022/05/24 08:43:20;;;;;;;6.57;1.98;;;;;;;;;;5022826;28;94562;-71
2022/05/24 08:48:41;;;;;;;5.93;1.77;;;;;;;;;;5013820;28;92522;-71
2022/05/24 08:51:15;;;;;;;6.95;1.65;;;;;;;;;;5015771;28;94318;-71
2022/05/24 08:53:45;;;;;;;4.43;1.45;;;;;;;;;;5016232;28;93793;-71
2022/05/24 08:56:32;;;;;;;6.65;1.80;;;;;;;;;;5016513;28;92581;-72
2022/05/24 08:59:18;;;;;;;3.80;1.73;;;;;;;;;;5015180;28;93474;-72
2022/05/24 09:01:45;;;;;;;3.45;1.45;;;;;;;;;;5013025;28;92503;-71
2022/05/24 09:04:12;;;;;;;1.48;0.80;;;;;;;;;;5015515;28;93523;-71
2022/05/24 09:06:49;;;;;;;5.82;1.33;;;;;;;;;;5016278;28;93501;-71
2022/05/24 09:09:24;;;;;;;3.17;1.02;;;;;;;;;;4998368;28;92460;-71
2022/05/24 09:12:00;;;;;;;1.42;0.60;;;;;;;;;;5014953;28;94825;-71
2022/05/24 09:14:26;;;;;;;3.38;0.73;;;;;;;;;;5014540;28;94160;-71
2022/05/24 09:17:10;;;;;;;2.83;0.60;;;;;;;;;;5011148;28;93286;-71
2022/05/24 09:19:39;;;;;;;1.00;0.60;;;;;;;;;;5015148;28;94252;-71
2022/05/24 09:22:06;;;;;;;0.95;0.50;;;;;;;;;;5016052;28;92393;-71
2022/05/24 09:24:47;;;;;;;1.13;0.75;;;;;;;;;;4997972;28;93797;-71
2022/05/24 09:27:19;;;;;;;1.27;0.85;;;;;;;;;;5014035;28;92559;-71
2022/05/24 09:30:03;;;;;;;3.58;1.35;;;;;;;;;;5013929;28;91807;-71
2022/05/24 09:32:32;;;;;;;4.00;1.83;;;;;;;;;;5014603;28;92930;-71
2022/05/24 09:35:08;;;;;;;5.70;1.98;;;;;;;;;;4993058;28;93419;-71
2022/05/24 09:37:35;;;;;;;3.80;2.08;;;;;;;;;;4994497;28;95174;-71
2022/05/24 09:40:04;;;;;;;7.60;2.47;;;;;;;;;;4978057;28;95922;-71
2022/05/24 09:42:32;;;;;;;5.20;2.80;;;;;;;;;;5002790;28;93243;-71
2022/05/24 09:45:00;;;;;;;4.28;2.10;;;;;;;;;;5013999;28;95671;-71
2022/05/24 09:47:31;;;;;;;3.25;1.10;;;;;;;;;;5013823;28;93501;-71
2022/05/24 09:50:19;;;;;;;2.00;1.00;;;;;;;;;;5016040;28;92496;-71
2022/05/24 09:53:04;;;;;;;5.00;0.90;;;;;;;;;;5014744;28;93176;-70
2022/05/24 09:55:36;;;;;;;1.38;0.85;;;;;;;;;;5005861;28;93226;-70
2022/05/24 09:58:20;;;;;;;1.48;1.08;;;;;;;;;;5014165;28;92530;-71
2022/05/24 10:00:48;;;;;;;2.00;0.88;;;;;;;;;;4989633;28;93283;-71
2022/05/24 10:03:15;;;;;;;1.00;1.00;;;;;;;;;;5007518;28;96148;-71
2022/05/24 10:05:41;;;;;;;0.80;0.80;;;;;;;;;;5017300;28;92421;-71
2022/05/24 10:08:12;;;;;;;0.88;0.88;;;;;;;;;;5014166;28;93608;-71
2022/05/24 10:10:48;;;;;;;2.70;1.15;;;;;;;;;;5015415;28;92803;-71
2022/05/24 10:13:20;;;;;;;4.43;1.20;;;;;;;;;;5014682;28;92885;-71
2022/05/24 10:16:05;;;;;;;1.83;1.20;;;;;;;;;;5011686;28;93219;-71
2022/05/24 10:18:38;;;;;;;3.90;1.38;;;;;;;;;;5014522;28;92847;-72
2022/05/24 10:21:23;;;;;;;1.60;1.30;;;;;;;;;;4996870;28;93421;-71
2022/05/24 10:23:54;;;;;;;2.40;1.30;;;;;;;;;;5013613;28;93618;-71
2022/05/24 10:26:25;;;;;;;3.35;1.30;;;;;;;;;;5013331;28;92576;-71
2022/05/24 10:29:04;;;;;;;3.15;1.02;;;;;;;;;;4995740;28;94930;-71
2022/05/24 10:31:46;;;;;;;3.65;1.08;;;;;;;;;;5015338;28;92379;-73
2022/05/24 10:40:13;;;;;;;1.65;0.63;;;;;;;;;;5014741;28;92854;-71
2022/05/24 10:42:47;;;;;;;2.13;0.60;;;;;;;;;;5013538;28;93638;-71
2022/05/24 10:45:15;;;;;;;2.03;0.60;;;;;;;;;;5014208;28;93390;-72
2022/05/24 10:47:57;;;;;;;1.25;0.70;;;;;;;;;;5012914;28;91740;-71
2022/05/24 10:50:41;;;;;;;1.50;0.57;;;;;;;;;;4998879;28;92477;-71
2022/05/24 10:53:15;;;;;;;1.65;0.65;;;;;;;;;;4995864;28;92507;-72
2022/05/24 10:55:50;;;;;;;2.10;0.50;;;;;;;;;;4975574;28;94883;-71
2022/05/24 10:58:17;;;;;;;1.27;0.70;;;;;;;;;;4994573;28;93010;-71
2022/05/24 11:00:46;;;;;;;1.35;0.50;;;;;;;;;;5009585;28;92531;-71
2022/05/24 11:03:17;;;;;;;8.00;1.10;;;;;;;;;;5014533;28;93151;-71
2022/05/24 11:05:45;;;;;;;2.90;0.98;;;;;;;;;;5013713;28;93569;-71
2022/05/24 11:08:30;;;;;;;2.65;1.10;;;;;;;;;;4995591;28;92476;-71
2022/05/24 11:10:58;;;;;;;3.67;1.23;;;;;;;;;;4996936;28;93035;-71
2022/05/24 11:13:36;;;;;;;3.00;1.23;;;;;;;;;;5014301;28;92701;-71
2022/05/24 11:16:05;;;;;;;4.43;1.55;;;;;;;;;;5008686;28;92868;-71
2022/05/24 11:18:38;;;;;;;4.85;1.40;;;;;;;;;;5013932;28;93761;-71
2022/05/24 11:21:10;;;;;;;6.68;1.90;;;;;;;;;;5012141;28;94866;-71
2022/05/24 11:23:45;;;;;;;5.38;1.63;;;;;;;;;;5013287;28;95909;-72
2022/05/24 11:26:15;;;;;;;11.07;1.60;;;;;;;;;;5010668;28;93375;-71
2022/05/24 11:28:47;;;;;;;9.88;2.03;;;;;;;;;;5011899;28;92437;-71
2022/05/24 11:31:19;;;;;;;3.20;1.48;;;;;;;;;;5014325;28;93337;-71
2022/05/24 11:33:48;;;;;;;5.90;2.22;;;;;;;;;;5013039;28;93661;-71
2022/05/24 11:36:33;;;;;;;4.88;1.88;;;;;;;;;;5015708;28;92850;-71
2022/05/24 11:39:06;;;;;;;4.00;1.85;;;;;;;;;;5014555;28;92791;-70
2022/05/24 11:41:32;;;;;;;5.80;2.33;;;;;;;;;;4995227;28;92680;-70
2022/05/24 11:44:01;;;;;;;7.82;1.88;;;;;;;;;;5015800;28;93435;-71
2022/05/24 11:46:33;;;;;;;7.03;1.98;;;;;;;;;;5012026;28;95940;-70
2022/05/24 11:49:00;;;;;;;5.95;2.00;;;;;;;;;;5013849;28;92404;-71
2022/05/24 11:51:39;;;;;;;7.68;2.60;;;;;;;;;;5012993;28;93229;-71
2022/05/24 11:54:25;;;;;;;7.82;1.80;;;;;;;;;;4994132;28;93604;-70
2022/05/24 11:56:53;;;;;;;4.43;1.63;;;;;;;;;;5013030;28;92830;-71
2022/05/24 11:59:38;;;;;;;7.40;1.70;;;;;;;;;;5014894;28;93012;-70
2022/05/24 12:02:19;;;;;;;6.65;1.80;;;;;;;;;;5007971;28;92469;-71
2022/05/24 12:07:54;;;;;;;5.82;1.63;;;;;;;;;;5011817;28;93854;-71
2022/05/24 12:10:20;;;;;;;9.65;2.20;;;;;;;;;;5013255;28;92532;-71
2022/05/24 12:12:54;;;;;;;7.60;2.03;;;;;;;;;;5011392;28;94766;-71
2022/05/24 12:15:22;;;;;;;8.10;1.73;;;;;;;;;;5012505;28;93376;-70
2022/05/24 12:17:53;;;;;;;6.47;1.92;;;;;;;;;;5013944;28;92467;-70
2022/05/24 12:20:27;;;;;;;5.80;2.00;;;;;;;;;;5012821;28;93617;-71
2022/05/24 12:23:06;;;;;;;6.13;1.88;;;;;;;;;;5015872;28;93682;-72
2022/05/24 12:25:53;;;;;;;10.80;1.60;;;;;;;;;;5012711;28;93017;-71
2022/05/24 12:28:22;;;;;;;7.07;1.70;;;;;;;;;;5015021;28;93496;-70
2022/05/24 12:30:49;;;;;;;4.00;1.77;;;;;;;;;;5008797;28;94184;-72
2022/05/24 12:33:20;;;;;;;5.03;1.65;;;;;;;;;;5015229;28;92609;-71
2022/05/24 12:36:08;;;;;;;4.97;1.95;;;;;;;;;;5012541;28;93304;-71
2022/05/24 12:38:35;;;;;;;6.47;1.80;;;;;;;;;;5005621;28;94830;-71
2022/05/24 12:41:07;;;;;;;5.50;1.30;;;;;;;;;;4987722;28;95640;-71
2022/05/24 12:43:54;;;;;;;4.72;1.35;;;;;;;;;;5003207;28;93432;-71
2022/05/24 12:46:21;;;;;;;3.72;1.10;;;;;;;;;;5006890;28;92411;-71
2022/05/24 12:48:48;;;;;;;6.43;1.42;;;;;;;;;;4997272;28;93459;-71
2022/05/24 12:51:18;;;;;;;2.50;1.30;;;;;;;;;;4999389;28;92447;-71
2022/05/24 12:53:44;;;;;;;4.00;1.48;;;;;;;;;;4998217;28;93352;-71
2022/05/24 12:56:15;;;;;;;7.78;1.80;;;;;;;;;;5008021;28;92811;-71
2022/05/24 12:58:43;;;;;;;4.93;1.45;;;;;;;;;;5012446;28;95058;-71
2022/05/24 13:01:14;;;;;;;6.50;1.42;;;;;;;;;;5010058;28;94033;-71
2022/05/24 13:03:47;;;;;;;4.57;1.77;;;;;;;;;;5011755;28;95808;-71
2022/05/24 13:06:23;;;;;;;9.73;1.58;;;;;;;;;;5017439;28;92497;-70
2022/05/24 13:09:08;;;;;;;2.28;1.40;;;;;;;;;;4998663;28;94416;-70
2022/05/24 13:11:35;;;;;;;3.55;1.40;;;;;;;;;;5015130;28;92438;-71
2022/05/24 13:14:01;;;;;;;4.07;1.23;;;;;;;;;;5012185;28;94215;-70
2022/05/24 13:16:28;;;;;;;4.57;1.30;;;;;;;;;;5013429;28;93651;-71
2022/05/24 13:18:55;;;;;;;2.78;1.08;;;;;;;;;;5014111;28;92536;-70
2022/05/24 13:21:22;;;;;;;2.53;0.95;;;;;;;;;;5015812;28;93505;-71
2022/05/24 13:24:05;;;;;;;5.60;1.50;;;;;;;;;;5014436;28;92887;-71
2022/05/24 13:26:31;;;;;;;11.68;1.40;;;;;;;;;;4995646;28;92576;-71
2022/05/24 13:29:17;;;;;;;3.15;1.10;;;;;;;;;;5004210;28;94753;-71
2022/05/24 13:34:31;;;;;;;8.07;1.52;;;;;;;;;;5014642;28;93160;-71
2022/05/24 13:36:58;;;;;;;4.22;1.20;;;;;;;;;;5010882;28;93505;-70
2022/05/24 13:39:26;;;;;;;3.95;1.15;;;;;;;;;;5015296;28;92489;-71
2022/05/24 13:41:59;;;;;;;5.53;1.40;;;;;;;;;;5013931;28;94986;-70
2022/05/24 13:45:04;;;;;;;2.35;0.80;;;;;;;;;;5015381;28;95055;-70
2022/05/24 13:47:35;;;;;;;8.88;1.15;;;;;;;;;;5001668;28;91815;-71
2022/05/24 13:50:17;;;;;;;1.17;0.70;;;;;;;;;;5015563;28;92411;-70
2022/05/24 13:52:49;;;;;;;2.72;0.65;;;;;;;;;;5014079;28;95095;-71
2022/05/24 13:55:23;;;;;;;1.33;0.75;;;;;;;;;;5011463;28;94788;-70
2022/05/24 13:57:54;;;;;;;2.60;1.10;;;;;;;;;;5015291;28;93303;-71
2022/05/24 14:00:24;;;;;;;4.32;1.20;;;;;;;;;;5014096;28;93246;-70
2022/05/24 14:03:09;;;;;;;4.68;0.80;;;;;;;;;;5016011;28;92270;-70
2022/05/24 14:05:36;;;;;;;2.08;0.82;;;;;;;;;;5011888;28;92995;-70
2022/05/24 14:08:04;;;;;;;2.00;0.70;;;;;;;;;;4995906;28;92618;-71
2022/05/24 14:10:31;;;;;;;4.13;0.60;;;;;;;;;;5014459;28;93188;-70
2022/05/24 14:12:57;;;;;;;1.85;0.65;;;;;;;;;;5014010;28;92658;-70
2022/05/24 14:15:23;;;;;;;3.88;0.70;;;;;;;;;;5018897;28;92581;-71
2022/05/24 14:17:50;;;;;;;1.80;0.70;;;;;;;;;;5015129;28;93530;-70
2022/05/24 14:20:17;;;;;;;2.05;0.82;;;;;;;;;;5007676;28;95820;-70
2022/05/24 14:22:44;;;;;;;8.93;0.75;;;;;;;;;;5009833;28;97774;-70
2022/05/24 14:25:11;;;;;;;1.63;0.68;;;;;;;;;;4992295;28;93642;-71
2022/05/24 14:27:38;;;;;;;1.33;0.60;;;;;;;;;;5012168;28;92611;-70
2022/05/24 14:30:04;;;;;;;1.90;0.65;;;;;;;;;;4997151;28;93136;-70
2022/05/24 14:32:32;;;;;;;3.90;0.98;;;;;;;;;;5012378;28;93224;-70
2022/05/24 14:34:58;;;;;;;4.10;0.80;;;;;;;;;;5014386;28;92395;-70
2022/05/24 14:37:25;;;;;;;2.17;0.65;;;;;;;;;;5018136;28;93181;-70
2022/05/24 14:39:51;;;;;;;1.73;0.70;;;;;;;;;;4991745;28;92674;-71
2022/05/24 14:42:21;;;;;;;6.03;1.25;;;;;;;;;;5007021;28;93479;-70
2022/05/24 14:44:47;;;;;;;1.75;0.63;;;;;;;;;;5013487;28;95685;-70
2022/05/24 14:47:14;;;;;;;9.70;1.98;;;;;;;;;;5013094;28;92669;-70
2022/05/24 14:49:41;;;;;;;1.67;0.65;;;;;;;;;;5007633;28;93417;-71
2022/05/24 14:52:09;;;;;;;2.67;0.70;;;;;;;;;;5010858;28;94473;-70
2022/05/24 14:54:38;;;;;;;3.35;0.90;;;;;;;;;;5009975;28;92689;-70
2022/05/24 14:57:09;;;;;;;1.05;0.70;;;;;;;;;;5008144;28;93085;-71
2022/05/24 14:59:38;;;;;;;1.52;0.80;;;;;;;;;;5007841;28;92908;-70
2022/05/24 15:02:07;;;;;;;0.93;0.80;;;;;;;;;;4996191;28;93388;-71
2022/05/24 15:04:34;;;;;;;3.15;0.85;;;;;;;;;;5011879;28;93539;-72
2022/05/24 15:15:24;;;;;;;3.05;1.23;;;;;;;;;;4999273;28;92769;-71
2022/05/24 15:17:51;;;;;;;2.80;0.90;;;;;;;;;;4985175;28;93133;-70
2022/05/24 15:20:19;;;;;;;1.98;1.02;;;;;;;;;;5003637;28;93689;-71
2022/05/24 15:22:52;;;;;;;3.50;1.30;;;;;;;;;;4996238;28;93153;-70
2022/05/24 15:25:20;;;;;;;2.70;1.10;;;;;;;;;;4973041;28;94475;-70
2022/05/24 15:27:47;;;;;;;2.13;1.10;;;;;;;;;;5012620;28;91703;-70
2022/05/24 15:30:13;;;;;;;3.28;1.10;;;;;;;;;;4998151;28;94113;-71
2022/05/24 15:32:40;;;;;;;3.63;1.35;;;;;;;;;;5010058;28;93849;-70
2022/05/24 15:35:07;;;;;;;6.80;0.95;;;;;;;;;;4992688;28;94898;-71
2022/05/24 15:37:33;;;;;;;1.83;1.10;;;;;;;;;;5012687;28;96083;-71
2022/05/24 15:39:59;;;;;;;3.58;1.20;;;;;;;;;;5009843;28;96786;-70
2022/05/24 15:42:28;;;;;;;2.40;1.02;;;;;;;;;;4996082;28;93963;-71